Time;durP1;ratioP1;P1;durP2;ratioP2;P2;SDS_P1;SDS_P2;PMS_P1;PMS_P2;Temp;Humidity;BMP_temperature;BMP_pressure;BME280_temperature;BME280_humidity;BME280_pressure;Samples;Min_cycle;Max_cycle;Signal;HPM_P1;HPM_P2
2021/10/12 00:00:01;;;;;;;5.63;0.90;;;12.30;99.90;;;;;;5006644;28;20207;-50
2021/10/12 00:02:28;;;;;;;1.87;0.80;;;12.30;99.90;;;;;;5007339;28;20207;-51
2021/10/12 00:04:55;;;;;;;3.73;0.90;;;12.40;99.90;;;;;;5009033;28;20613;-50
2021/10/12 00:07:22;;;;;;;1.13;0.73;;;12.40;99.90;;;;;;5007093;28;20294;-50
2021/10/12 00:09:49;;;;;;;3.60;1.07;;;12.30;99.90;;;;;;5006030;28;20309;-50
2021/10/12 00:12:17;;;;;;;5.00;1.40;;;12.20;99.90;;;;;;5011307;28;20199;-50
2021/10/12 00:14:44;;;;;;;3.80;1.43;;;12.10;99.90;;;;;;5014402;28;20510;-50
2021/10/12 00:17:11;;;;;;;5.77;1.60;;;12.10;99.90;;;;;;5009199;28;20213;-50
2021/10/12 00:19:38;;;;;;;5.77;1.30;;;12.10;99.90;;;;;;5009444;28;20224;-50
2021/10/12 00:22:05;;;;;;;3.80;1.20;;;12.10;99.90;;;;;;5015277;28;20256;-50
2021/10/12 00:24:32;;;;;;;2.97;1.20;;;12.00;99.90;;;;;;5010990;28;20752;-50
2021/10/12 00:26:59;;;;;;;3.43;1.20;;;11.90;99.90;;;;;;5007327;28;20270;-51
2021/10/12 00:29:26;;;;;;;4.10;1.50;;;11.90;99.90;;;;;;5013180;28;20252;-50
2021/10/12 00:31:53;;;;;;;6.20;1.57;;;12.00;99.90;;;;;;5011807;28;20320;-50
2021/10/12 00:34:21;;;;;;;6.10;1.87;;;12.20;99.90;;;;;;5012411;28;20208;-51
2021/10/12 00:36:48;;;;;;;7.60;2.10;;;12.00;99.90;;;;;;5012423;28;20301;-50
2021/10/12 00:39:15;;;;;;;7.70;2.03;;;11.90;99.90;;;;;;5014473;28;20322;-50
2021/10/12 00:41:43;;;;;;;6.53;1.70;;;12.10;99.90;;;;;;5016957;28;20689;-50
2021/10/12 00:44:10;;;;;;;7.80;2.20;;;12.30;99.90;;;;;;5015081;28;20247;-51
2021/10/12 00:46:37;;;;;;;5.77;2.03;;;12.30;99.90;;;;;;5010576;28;20741;-50
2021/10/12 00:49:04;;;;;;;4.60;1.60;;;12.10;99.90;;;;;;5009346;28;20729;-50
2021/10/12 00:51:32;;;;;;;10.40;2.33;;;12.20;99.90;;;;;;5012924;28;20611;-50
2021/10/12 00:53:59;;;;;;;3.00;1.73;;;12.20;99.90;;;;;;5010351;28;20199;-50
2021/10/12 00:56:26;;;;;;;8.57;2.33;;;12.20;99.90;;;;;;5014139;28;20197;-50
2021/10/12 00:58:53;;;;;;;6.73;2.20;;;12.00;99.90;;;;;;5011085;28;20347;-50
2021/10/12 01:01:20;;;;;;;6.67;2.00;;;11.90;99.90;;;;;;5009176;28;20241;-50
2021/10/12 01:03:48;;;;;;;8.67;2.60;;;12.00;99.90;;;;;;5009669;28;20219;-50
2021/10/12 01:06:15;;;;;;;5.37;1.90;;;12.10;99.90;;;;;;5008110;28;20744;-50
2021/10/12 01:08:42;;;;;;;8.97;2.50;;;12.10;99.90;;;;;;5008599;28;20210;-50
2021/10/12 01:11:10;;;;;;;3.40;2.20;;;12.20;99.90;;;;;;5010510;28;20220;-50
2021/10/12 01:13:38;;;;;;;4.00;2.17;;;12.30;99.90;;;;;;5011904;28;20250;-50
2021/10/12 01:16:06;;;;;;;7.20;2.10;;;12.30;99.90;;;;;;5017122;28;20630;-50
2021/10/12 01:18:33;;;;;;;8.23;3.33;;;12.20;99.90;;;;;;5008931;28;20254;-51
2021/10/12 01:21:00;;;;;;;5.43;2.70;;;12.20;99.90;;;;;;5008780;28;20198;-51
2021/10/12 01:23:27;;;;;;;7.43;2.10;;;12.30;99.90;;;;;;5009455;28;20230;-50
2021/10/12 01:25:55;;;;;;;5.87;2.70;;;12.30;99.90;;;;;;5014161;28;20576;-50
2021/10/12 01:28:22;;;;;;;7.30;2.70;;;12.20;99.90;;;;;;5013135;28;20299;-50
2021/10/12 01:30:51;;;;;;;6.53;2.60;;;12.20;99.90;;;;;;5014324;28;20223;-49
2021/10/12 01:33:18;;;;;;;10.50;2.40;;;11.90;99.90;;;;;;5010595;28;20481;-50
2021/10/12 01:35:50;;;;;;;7.93;2.27;;;11.70;99.90;;;;;;5006190;28;20678;-50
2021/10/12 01:38:17;;;;;;;11.27;3.03;;;11.80;99.90;;;;;;5011252;28;20261;-50
2021/10/12 01:40:44;;;;;;;7.80;2.13;;;11.80;99.90;;;;;;5015473;28;20294;-51
2021/10/12 01:43:11;;;;;;;9.47;2.43;;;11.70;99.90;;;;;;5009115;28;20233;-50
2021/10/12 01:45:38;;;;;;;8.57;2.47;;;11.70;99.90;;;;;;5015335;28;20274;-51
2021/10/12 01:48:06;;;;;;;9.00;2.83;;;11.60;99.90;;;;;;5011568;28;20206;-50
2021/10/12 01:50:33;;;;;;;4.97;2.57;;;11.60;99.90;;;;;;5004708;28;20341;-50
2021/10/12 01:53:00;;;;;;;8.80;2.33;;;11.60;99.90;;;;;;5009300;28;20205;-48
2021/10/12 01:55:27;;;;;;;4.07;2.13;;;11.60;99.90;;;;;;5007602;28;20199;-50
2021/10/12 01:57:54;;;;;;;7.70;2.00;;;11.60;99.90;;;;;;5013917;28;20698;-50
2021/10/12 02:00:21;;;;;;;3.80;2.13;;;11.70;99.90;;;;;;5011539;28;20205;-50
2021/10/12 02:02:48;;;;;;;8.20;2.60;;;11.70;99.90;;;;;;5013370;28;20298;-50
2021/10/12 02:05:15;;;;;;;3.70;2.23;;;11.70;99.90;;;;;;5012829;28;20288;-50
2021/10/12 02:07:42;;;;;;;6.83;2.10;;;11.70;99.90;;;;;;5008188;28;20640;-50
2021/10/12 02:10:09;;;;;;;4.10;2.23;;;11.80;99.90;;;;;;5014281;28;20299;-50
2021/10/12 02:12:36;;;;;;;4.00;1.90;;;11.90;99.90;;;;;;5007512;28;20193;-50
2021/10/12 02:15:04;;;;;;;8.83;2.20;;;11.90;99.90;;;;;;5012164;28;20207;-50
2021/10/12 02:17:31;;;;;;;10.27;2.30;;;11.90;99.90;;;;;;5010321;28;20235;-50
2021/10/12 02:19:58;;;;;;;6.13;1.80;;;11.90;99.90;;;;;;5009878;28;20209;-51
2021/10/12 02:22:25;;;;;;;3.17;1.50;;;12.00;99.90;;;;;;5012344;28;20384;-50
2021/10/12 02:24:53;;;;;;;3.73;1.53;;;12.00;99.90;;;;;;5008269;28;20370;-50
2021/10/12 02:27:20;;;;;;;6.43;1.40;;;12.00;99.90;;;;;;5012004;28;20232;-51
2021/10/12 02:29:48;;;;;;;6.63;1.30;;;12.10;99.90;;;;;;5008519;28;20554;-50
2021/10/12 02:32:15;;;;;;;5.87;1.43;;;11.90;99.90;;;;;;5009306;28;20779;-50
2021/10/12 02:34:42;;;;;;;4.80;1.37;;;12.00;99.90;;;;;;5010669;28;20261;-50
2021/10/12 02:37:10;;;;;;;3.97;1.33;;;12.00;99.90;;;;;;5008514;28;20308;-50
2021/10/12 02:39:37;;;;;;;4.20;1.37;;;12.00;99.90;;;;;;5012750;28;20221;-50
2021/10/12 02:42:04;;;;;;;2.87;1.00;;;12.10;99.90;;;;;;5009261;28;20205;-50
2021/10/12 02:44:32;;;;;;;9.97;2.07;;;11.90;99.90;;;;;;5010856;28;20216;-51
2021/10/12 02:46:58;;;;;;;6.23;1.30;;;11.80;99.90;;;;;;5008347;28;20243;-50
2021/10/12 02:49:25;;;;;;;5.93;1.50;;;11.80;99.90;;;;;;5008097;28;20330;-50
2021/10/12 02:51:52;;;;;;;6.73;1.40;;;11.90;99.90;;;;;;5011456;28;20216;-50
2021/10/12 02:54:19;;;;;;;3.43;1.33;;;12.10;99.90;;;;;;5008486;28;20280;-50
2021/10/12 02:56:46;;;;;;;6.60;1.70;;;12.00;99.90;;;;;;5005112;28;20652;-50
2021/10/12 02:59:12;;;;;;;4.70;1.60;;;12.10;99.90;;;;;;5009326;28;20205;-50
2021/10/12 03:01:39;;;;;;;3.13;1.60;;;12.10;99.90;;;;;;5012516;28;20258;-50
2021/10/12 03:04:07;;;;;;;8.03;1.60;;;12.00;99.90;;;;;;5006094;28;20211;-50
2021/10/12 03:06:33;;;;;;;4.63;1.50;;;11.90;99.90;;;;;;5009493;28;20218;-51
2021/10/12 03:09:00;;;;;;;2.23;1.40;;;11.80;99.90;;;;;;5007041;28;20678;-50
2021/10/12 03:11:27;;;;;;;5.73;1.83;;;11.70;99.90;;;;;;5005492;28;20282;-50
2021/10/12 03:13:54;;;;;;;6.43;2.07;;;11.60;99.90;;;;;;5008944;28;21051;-50
2021/10/12 03:16:21;;;;;;;4.13;1.73;;;11.50;99.90;;;;;;5007024;28;21912;-51
2021/10/12 03:18:48;;;;;;;4.70;1.70;;;11.40;99.90;;;;;;5009348;28;20442;-50
2021/10/12 03:21:15;;;;;;;9.30;2.20;;;11.40;99.90;;;;;;5009372;28;20200;-50
2021/10/12 03:23:42;;;;;;;3.50;1.77;;;11.40;99.90;;;;;;5006460;28;20718;-50
2021/10/12 03:26:09;;;;;;;4.20;2.10;;;11.40;99.90;;;;;;5007836;28;20699;-50
2021/10/12 03:28:36;;;;;;;5.67;2.00;;;11.30;99.90;;;;;;5008918;28;20586;-50
2021/10/12 03:31:03;;;;;;;5.33;1.50;;;11.40;99.90;;;;;;5007511;28;20310;-50
2021/10/12 03:33:30;;;;;;;4.33;1.60;;;11.50;99.90;;;;;;5007796;28;20306;-50
2021/10/12 03:35:59;;;;;;;3.87;1.80;;;11.50;99.90;;;;;;5008778;28;20192;-49
2021/10/12 03:38:28;;;;;;;6.37;2.03;;;11.40;99.90;;;;;;5008814;28;20201;-50
2021/10/12 03:40:55;;;;;;;8.27;1.83;;;11.40;99.90;;;;;;5005377;28;20297;-49
2021/10/12 03:43:23;;;;;;;9.10;1.93;;;11.50;99.90;;;;;;5009277;28;20250;-49
2021/10/12 03:45:51;;;;;;;4.00;1.80;;;11.40;99.90;;;;;;5012707;28;20862;-50
2021/10/12 03:48:18;;;;;;;6.47;1.90;;;11.40;99.90;;;;;;5010643;28;20377;-50
2021/10/12 03:50:44;;;;;;;5.33;1.60;;;11.40;99.90;;;;;;5014189;28;20690;-50
2021/10/12 03:53:11;;;;;;;4.77;1.47;;;11.40;99.90;;;;;;5017080;28;20238;-50
2021/10/12 03:55:38;;;;;;;5.73;1.47;;;11.40;99.90;;;;;;5008938;28;20266;-50
2021/10/12 03:58:05;;;;;;;4.70;1.90;;;11.30;99.90;;;;;;5011557;28;20253;-50
2021/10/12 04:00:32;;;;;;;5.03;1.47;;;11.30;99.90;;;;;;5010870;28;20770;-50
2021/10/12 04:03:00;;;;;;;4.93;1.40;;;11.20;99.90;;;;;;5012584;28;20298;-51
2021/10/12 04:05:27;;;;;;;7.80;2.10;;;11.20;99.90;;;;;;5011074;28;20363;-50
2021/10/12 04:07:54;;;;;;;6.90;1.40;;;11.30;99.90;;;;;;5012545;28;20670;-51
2021/10/12 04:10:21;;;;;;;7.63;1.83;;;11.30;99.90;;;;;;5014767;28;20583;-50
2021/10/12 04:12:48;;;;;;;9.43;1.80;;;11.40;99.90;;;;;;5013637;28;20629;-50
2021/10/12 04:15:15;;;;;;;6.27;1.83;;;11.40;99.90;;;;;;5008186;28;20209;-50
2021/10/12 04:17:41;;;;;;;6.73;1.87;;;11.40;99.90;;;;;;5015351;28;20254;-50
2021/10/12 04:20:09;;;;;;;5.47;1.90;;;11.30;99.90;;;;;;5010195;28;20196;-51
2021/10/12 04:22:36;;;;;;;4.30;1.83;;;11.20;99.90;;;;;;5013255;28;20297;-50
2021/10/12 04:25:04;;;;;;;6.37;2.33;;;11.10;99.90;;;;;;5013713;28;20208;-50
2021/10/12 04:27:31;;;;;;;5.50;2.07;;;11.10;99.90;;;;;;5008631;28;20212;-50
2021/10/12 04:29:58;;;;;;;6.67;2.23;;;11.10;99.90;;;;;;5011655;28;20281;-50
2021/10/12 04:32:24;;;;;;;7.50;2.17;;;11.20;99.90;;;;;;5011257;28;20232;-50
2021/10/12 04:34:52;;;;;;;7.43;2.17;;;11.10;99.90;;;;;;5013803;28;20567;-50
2021/10/12 04:37:20;;;;;;;5.30;2.50;;;11.20;99.90;;;;;;5009302;28;20265;-50
2021/10/12 04:39:47;;;;;;;7.97;2.60;;;11.20;99.90;;;;;;5011531;28;20202;-50
2021/10/12 04:42:14;;;;;;;4.97;2.13;;;11.20;99.90;;;;;;5011505;28;20216;-50
2021/10/12 04:44:41;;;;;;;5.97;2.70;;;11.30;99.90;;;;;;5009390;28;20209;-50
2021/10/12 04:47:09;;;;;;;6.70;2.57;;;11.30;99.90;;;;;;5014497;28;20519;-50
2021/10/12 04:49:36;;;;;;;7.47;2.20;;;11.30;99.90;;;;;;5013539;28;20232;-50
2021/10/12 04:52:03;;;;;;;6.87;2.47;;;11.30;99.90;;;;;;5009864;28;20506;-50
2021/10/12 04:54:30;;;;;;;7.17;2.50;;;11.30;99.90;;;;;;5012071;28;20299;-49
2021/10/12 04:56:58;;;;;;;10.47;2.60;;;11.10;99.90;;;;;;5012942;28;20242;-50
2021/10/12 04:59:25;;;;;;;7.93;2.97;;;11.10;99.90;;;;;;5008407;28;20243;-50
2021/10/12 05:01:52;;;;;;;7.13;2.67;;;11.10;99.90;;;;;;5008534;28;20288;-51
2021/10/12 05:04:19;;;;;;;3.97;2.90;;;11.10;99.90;;;;;;5012063;28;20309;-50
2021/10/12 05:06:46;;;;;;;5.20;2.60;;;11.10;99.90;;;;;;5013909;28;20651;-50
2021/10/12 05:09:13;;;;;;;8.73;2.73;;;11.10;99.90;;;;;;5012323;28;20560;-51
2021/10/12 05:11:40;;;;;;;6.60;2.73;;;11.20;99.90;;;;;;5018085;28;20263;-51
2021/10/12 05:14:07;;;;;;;9.70;2.77;;;11.20;99.90;;;;;;5005778;28;20204;-50
2021/10/12 05:16:34;;;;;;;8.43;3.17;;;11.20;99.90;;;;;;5007953;28;20207;-50
2021/10/12 05:19:01;;;;;;;10.30;3.27;;;11.20;99.90;;;;;;5009089;28;20655;-50
2021/10/12 05:21:30;;;;;;;8.83;3.30;;;11.20;99.90;;;;;;5008824;28;20222;-50
2021/10/12 05:23:57;;;;;;;9.13;3.13;;;11.30;99.90;;;;;;5014164;28;20204;-50
2021/10/12 05:26:24;;;;;;;7.33;2.83;;;11.30;99.90;;;;;;5010851;28;21436;-50
2021/10/12 05:28:52;;;;;;;4.40;2.73;;;11.30;99.90;;;;;;5010750;28;20286;-50
2021/10/12 05:31:21;;;;;;;7.00;2.70;;;11.40;99.90;;;;;;5011129;28;20367;-50
2021/10/12 05:33:48;;;;;;;7.50;3.50;;;11.50;99.90;;;;;;5012199;28;20307;-51
2021/10/12 05:36:16;;;;;;;5.87;2.77;;;11.50;99.90;;;;;;5006566;28;20245;-51
2021/10/12 05:38:42;;;;;;;5.50;3.10;;;11.50;99.90;;;;;;5015743;28;20207;-51
2021/10/12 05:41:10;;;;;;;7.60;2.63;;;11.60;99.90;;;;;;5022132;28;20758;-48
2021/10/12 05:43:38;;;;;;;12.93;3.47;;;11.50;99.90;;;;;;5011584;28;20239;-49
2021/10/12 05:46:06;;;;;;;6.67;3.10;;;11.30;99.90;;;;;;5007757;28;20217;-48
2021/10/12 05:48:32;;;;;;;6.80;3.23;;;11.40;99.90;;;;;;5008381;28;20792;-48
2021/10/12 05:50:59;;;;;;;8.67;2.73;;;11.40;99.90;;;;;;5017060;28;20561;-50
2021/10/12 05:56:28;;;;;;;7.97;3.27;;;11.40;99.90;;;;;;5006939;28;20421;-51
2021/10/12 05:58:55;;;;;;;5.97;2.83;;;11.40;99.90;;;;;;5019891;28;20285;-51
2021/10/12 06:01:23;;;;;;;6.10;3.10;;;11.40;99.90;;;;;;5013677;28;20289;-50
2021/10/12 06:03:50;;;;;;;10.93;3.70;;;11.40;99.90;;;;;;5009861;28;20862;-51
2021/10/12 06:06:17;;;;;;;5.40;3.20;;;11.40;99.90;;;;;;5016872;28;20518;-51
2021/10/12 06:08:44;;;;;;;9.43;3.80;;;11.50;99.90;;;;;;5006327;28;20661;-48
2021/10/12 06:11:11;;;;;;;8.10;3.67;;;11.50;99.90;;;;;;5005538;28;20216;-48
2021/10/12 06:13:40;;;;;;;10.43;4.10;;;11.60;99.90;;;;;;5014180;28;20529;-51
2021/10/12 06:16:08;;;;;;;7.33;4.27;;;11.50;99.90;;;;;;5006232;28;20201;-48
2021/10/12 06:18:35;;;;;;;6.93;3.83;;;11.50;99.90;;;;;;5006476;28;20194;-48
2021/10/12 06:21:02;;;;;;;6.50;3.77;;;11.60;99.90;;;;;;5009530;28;20523;-49
2021/10/12 06:23:30;;;;;;;7.63;4.40;;;11.60;99.90;;;;;;5013916;28;20206;-51
2021/10/12 06:25:57;;;;;;;6.73;3.80;;;11.60;99.90;;;;;;5013617;28;20247;-51
2021/10/12 06:28:24;;;;;;;11.10;3.80;;;11.60;99.90;;;;;;5008531;28;20284;-48
2021/10/12 06:30:50;;;;;;;6.53;3.77;;;11.60;99.90;;;;;;5008934;28;20232;-49
2021/10/12 06:33:17;;;;;;;7.40;4.33;;;11.60;99.90;;;;;;5009847;28;20233;-48
2021/10/12 06:35:44;;;;;;;8.60;5.17;;;11.50;99.90;;;;;;5013791;28;20266;-49
2021/10/12 06:38:11;;;;;;;11.27;4.80;;;11.50;99.90;;;;;;5014899;28;20215;-49
2021/10/12 06:40:39;;;;;;;13.10;4.90;;;11.50;99.90;;;;;;5009073;28;20201;-49
2021/10/12 06:43:06;;;;;;;11.17;5.07;;;11.50;99.90;;;;;;5010892;28;20229;-49
2021/10/12 06:45:33;;;;;;;8.93;5.13;;;11.60;99.90;;;;;;5016482;28;20211;-49
2021/10/12 06:48:00;;;;;;;9.13;5.07;;;11.60;99.90;;;;;;5020743;28;20280;-48
2021/10/12 06:50:28;;;;;;;9.90;5.50;;;11.60;99.90;;;;;;5013170;28;20238;-49
2021/10/12 06:52:55;;;;;;;10.47;5.90;;;11.50;99.90;;;;;;5010155;28;20221;-48
2021/10/12 06:55:22;;;;;;;7.60;5.33;;;11.50;99.90;;;;;;5013501;28;20303;-51
2021/10/12 06:57:49;;;;;;;11.00;5.07;;;11.50;99.90;;;;;;5011558;28;20309;-49
2021/10/12 07:00:17;;;;;;;6.53;4.90;;;11.50;99.90;;;;;;5012044;28;20796;-48
2021/10/12 07:02:45;;;;;;;8.80;5.57;;;11.50;99.90;;;;;;5008239;28;20254;-48
2021/10/12 07:05:13;;;;;;;9.20;4.67;;;11.40;99.90;;;;;;5010533;28;20302;-49
2021/10/12 07:07:40;;;;;;;10.50;4.70;;;11.60;99.90;;;;;;5013218;28;20221;-49
2021/10/12 07:10:09;;;;;;;10.67;5.10;;;11.60;99.90;;;;;;5012551;28;20208;-49
2021/10/12 07:12:37;;;;;;;6.80;4.10;;;11.50;99.90;;;;;;5009830;28;20271;-48
2021/10/12 07:15:05;;;;;;;13.50;4.40;;;11.50;99.90;;;;;;5002115;28;20656;-49
2021/10/12 07:17:33;;;;;;;12.50;4.40;;;11.50;99.90;;;;;;5019056;28;21081;-51
2021/10/12 07:19:59;;;;;;;7.20;3.87;;;11.40;99.90;;;;;;5017180;28;20250;-49
2021/10/12 07:22:26;;;;;;;7.53;4.07;;;11.50;99.90;;;;;;5014898;28;20202;-48
2021/10/12 07:24:57;;;;;;;10.10;4.03;;;11.50;99.90;;;;;;5014341;28;20198;-49
2021/10/12 07:27:24;;;;;;;8.43;3.57;;;11.60;99.90;;;;;;5012417;28;20234;-49
2021/10/12 07:30:07;;;;;;;8.17;4.37;;;11.60;99.90;;;;;;5023295;28;20205;-49
2021/10/12 07:32:35;;;;;;;10.13;4.40;;;11.60;99.90;;;;;;5012274;28;20654;-51
2021/10/12 07:35:02;;;;;;;10.83;4.53;;;11.70;99.90;;;;;;5010632;28;20258;-49
2021/10/12 07:37:29;;;;;;;9.57;4.03;;;11.50;99.90;;;;;;5011350;28;20235;-49
2021/10/12 07:39:55;;;;;;;10.23;4.60;;;11.70;99.90;;;;;;5011203;28;20227;-49
2021/10/12 07:42:22;;;;;;;10.37;4.53;;;11.70;99.90;;;;;;5012840;28;20286;-49
2021/10/12 07:44:49;;;;;;;8.33;4.00;;;11.80;99.90;;;;;;5015825;28;20211;-50
2021/10/12 07:47:16;;;;;;;6.93;4.10;;;11.90;99.90;;;;;;5023999;28;20210;-50
2021/10/12 07:49:43;;;;;;;5.57;3.73;;;11.70;99.90;;;;;;5016378;28;20293;-49
2021/10/12 07:52:10;;;;;;;9.13;4.30;;;11.90;99.90;;;;;;5013983;28;20619;-50
2021/10/12 07:57:40;;;;;;;8.67;3.57;;;11.90;99.90;;;;;;4975300;28;20294;-49
2021/10/12 08:00:09;;;;;;;12.13;4.43;;;12.00;99.90;;;;;;4977503;28;20216;-49
2021/10/12 08:02:36;;;;;;;8.63;3.77;;;12.00;99.90;;;;;;4968872;28;20245;-50
2021/10/12 08:05:03;;;;;;;9.33;4.00;;;12.20;99.90;;;;;;4981555;28;20291;-50
2021/10/12 08:07:30;;;;;;;11.07;4.10;;;12.10;99.90;;;;;;4974608;28;20266;-49
2021/10/12 08:09:58;;;;;;;10.83;3.60;;;12.10;99.90;;;;;;4972938;28;20295;-49
2021/10/12 08:12:26;;;;;;;7.53;3.87;;;12.10;99.90;;;;;;4979301;28;20606;-49
2021/10/12 08:14:59;;;;;;;13.90;3.87;;;12.10;99.90;;;;;;4977562;28;20281;-49
2021/10/12 08:17:26;;;;;;;11.30;3.83;;;12.30;99.90;;;;;;4974883;28;20316;-49
2021/10/12 08:19:52;;;;;;;9.17;3.80;;;12.30;99.90;;;;;;4970846;28;20216;-49
2021/10/12 08:22:19;;;;;;;11.93;3.60;;;12.30;99.90;;;;;;4970564;28;20710;-49
2021/10/12 08:24:46;;;;;;;8.80;3.80;;;12.40;99.90;;;;;;4972585;28;20283;-48
2021/10/12 08:27:13;;;;;;;8.37;3.20;;;12.50;99.90;;;;;;4972685;28;20211;-48
2021/10/12 08:29:40;;;;;;;10.90;3.70;;;12.50;99.90;;;;;;4968347;28;20197;-52
2021/10/12 08:32:06;;;;;;;10.10;3.23;;;12.50;99.90;;;;;;5000319;28;20262;-49
2021/10/12 08:34:34;;;;;;;13.37;4.17;;;12.60;99.90;;;;;;5017215;28;20203;-49
2021/10/12 08:37:00;;;;;;;9.57;3.37;;;12.80;99.90;;;;;;5015282;28;20280;-49
2021/10/12 08:39:31;;;;;;;13.47;3.40;;;13.00;99.90;;;;;;5019621;28;20244;-48
2021/10/12 08:42:14;;;;;;;15.00;3.20;;;13.20;99.90;;;;;;5008615;28;20211;-49
2021/10/12 08:45:07;;;;;;;8.23;3.07;;;13.20;99.90;;;;;;5014845;28;20203;-49
2021/10/12 08:47:36;;;;;;;6.40;3.00;;;13.30;99.90;;;;;;5012013;28;20329;-49
2021/10/12 08:50:07;;;;;;;8.97;2.87;;;13.50;99.90;;;;;;5014627;28;20245;-49
2021/10/12 08:52:34;;;;;;;6.40;2.60;;;13.50;99.90;;;;;;5015890;28;20245;-49
2021/10/12 08:55:01;;;;;;;11.10;3.37;;;13.50;99.90;;;;;;5012362;28;20240;-48
2021/10/12 08:57:34;;;;;;;10.73;2.83;;;13.50;99.90;;;;;;5011537;28;20264;-49
2021/10/12 09:00:06;;;;;;;8.53;2.97;;;13.40;99.90;;;;;;5022904;28;20271;-49
2021/10/12 09:02:33;;;;;;;6.87;2.17;;;13.40;99.90;;;;;;5009433;28;20295;-48
2021/10/12 09:05:00;;;;;;;5.40;2.10;;;13.40;99.90;;;;;;5016840;28;20205;-49
2021/10/12 09:07:30;;;;;;;9.33;2.20;;;13.30;99.90;;;;;;5011767;28;20632;-48
2021/10/12 09:09:57;;;;;;;6.33;2.20;;;13.30;99.90;;;;;;5012330;28;20255;-49
2021/10/12 09:12:43;;;;;;;8.80;2.60;;;13.40;99.90;;;;;;5010761;28;20216;-49
2021/10/12 09:15:12;;;;;;;7.63;2.40;;;13.50;99.90;;;;;;5015391;28;20197;-49
2021/10/12 09:17:40;;;;;;;5.13;2.20;;;13.50;99.90;;;;;;5012734;28;20201;-49
2021/10/12 09:20:10;;;;;;;12.93;3.03;;;13.60;99.90;;;;;;5008311;28;20210;-49
2021/10/12 09:22:40;;;;;;;6.83;1.90;;;13.50;99.90;;;;;;5017688;28;20242;-49
2021/10/12 09:25:13;;;;;;;10.20;2.60;;;13.70;99.90;;;;;;5009765;28;20248;-50
2021/10/12 09:27:54;;;;;;;8.53;2.63;;;13.70;99.90;;;;;;5015908;28;20251;-49
2021/10/12 09:30:28;;;;;;;9.27;2.17;;;13.80;99.90;;;;;;5009964;28;20291;-50
2021/10/12 09:33:13;;;;;;;7.77;2.43;;;13.80;99.90;;;;;;5008351;28;20296;-50
2021/10/12 09:35:41;;;;;;;7.73;2.47;;;13.90;99.90;;;;;;5006855;28;20229;-49
2021/10/12 09:38:13;;;;;;;9.57;2.47;;;13.90;99.90;;;;;;5020206;28;20342;-49
2021/10/12 09:40:44;;;;;;;11.17;2.50;;;14.00;99.90;;;;;;5012229;28;20197;-50
2021/10/12 09:43:16;;;;;;;12.90;2.63;;;14.20;99.90;;;;;;5009707;28;20569;-49
2021/10/12 09:45:45;;;;;;;6.07;1.60;;;14.10;99.90;;;;;;5015342;28;20234;-49
2021/10/12 09:48:32;;;;;;;7.30;1.63;;;14.10;99.90;;;;;;5008114;28;20234;-49
2021/10/12 09:51:06;;;;;;;7.73;2.10;;;14.20;99.90;;;;;;5012244;28;20230;-49
2021/10/12 09:53:33;;;;;;;6.27;1.67;;;14.10;99.90;;;;;;5015210;28;20315;-49
2021/10/12 09:56:02;;;;;;;8.63;1.80;;;14.30;99.90;;;;;;5008200;28;20259;-49
2021/10/12 09:58:30;;;;;;;5.00;1.90;;;14.30;99.90;;;;;;5016525;28;20232;-49
2021/10/12 10:01:03;;;;;;;4.87;1.63;;;14.30;99.90;;;;;;5013379;28;20911;-49
2021/10/12 10:03:31;;;;;;;11.60;2.27;;;14.20;99.90;;;;;;5008847;28;20323;-50
2021/10/12 10:06:03;;;;;;;5.87;2.00;;;14.20;99.90;;;;;;5012654;28;20669;-49
2021/10/12 10:08:30;;;;;;;6.33;1.90;;;14.30;99.90;;;;;;5018275;28;20291;-49
2021/10/12 10:11:17;;;;;;;5.33;1.87;;;14.40;99.90;;;;;;5012272;28;20233;-49
2021/10/12 10:13:45;;;;;;;8.20;1.83;;;14.50;99.90;;;;;;5008538;28;20223;-50
2021/10/12 10:16:14;;;;;;;3.83;1.67;;;14.30;99.90;;;;;;5013574;28;20250;-50
2021/10/12 10:18:44;;;;;;;7.13;2.67;;;14.40;99.90;;;;;;5011878;28;20204;-49
2021/10/12 10:21:11;;;;;;;7.33;2.17;;;14.40;99.90;;;;;;5012255;28;20267;-50
2021/10/12 10:24:08;;;;;;;6.67;2.03;;;14.40;99.90;;;;;;5010987;28;21208;-49
2021/10/12 10:26:37;;;;;;;7.33;2.50;;;14.40;99.90;;;;;;5016680;28;20303;-50
2021/10/12 10:29:29;;;;;;;11.10;2.23;;;14.30;99.90;;;;;;5007078;28;20208;-49
2021/10/12 10:32:22;;;;;;;7.90;2.00;;;14.30;99.90;;;;;;5011424;28;20636;-50
2021/10/12 10:35:00;;;;;;;8.20;1.83;;;14.20;99.90;;;;;;5017553;28;20477;-50
2021/10/12 10:37:30;;;;;;;5.50;1.73;;;14.20;99.90;;;;;;5007475;28;20576;-50
2021/10/12 10:40:15;;;;;;;4.03;1.87;;;14.20;99.90;;;;;;5016211;28;20238;-50
2021/10/12 10:42:42;;;;;;;3.17;1.03;;;14.10;99.90;;;;;;5016098;28;20267;-50
2021/10/12 10:45:12;;;;;;;6.00;1.27;;;14.10;99.90;;;;;;5010800;28;20290;-50
2021/10/12 10:47:41;;;;;;;1.57;1.10;;;13.90;99.90;;;;;;5012891;28;20256;-49
2021/10/12 10:50:27;;;;;;;1.77;0.90;;;14.00;99.90;;;;;;5012793;28;20319;-49
2021/10/12 10:52:58;;;;;;;5.23;0.80;;;14.20;99.90;;;;;;5008004;28;20221;-49
2021/10/12 10:55:33;;;;;;;2.93;0.80;;;14.30;99.90;;;;;;5011743;28;20585;-49
2021/10/12 10:58:13;;;;;;;2.87;0.90;;;14.30;99.90;;;;;;5008845;28;20247;-50
2021/10/12 11:00:54;;;;;;;1.40;0.80;;;14.20;99.90;;;;;;5013825;28;20683;-49
2021/10/12 11:03:30;;;;;;;2.07;0.77;;;14.10;99.90;;;;;;5017944;28;21444;-49
2021/10/12 11:06:01;;;;;;;1.83;0.60;;;14.10;99.90;;;;;;5012789;28;20236;-49
2021/10/12 11:08:33;;;;;;;2.47;0.83;;;14.10;99.90;;;;;;5010588;28;20203;-50
2021/10/12 11:11:02;;;;;;;1.23;0.70;;;14.10;99.90;;;;;;5009049;28;20236;-49
2021/10/12 11:13:41;;;;;;;4.53;1.13;;;14.00;99.90;;;;;;5010384;28;20221;-49
2021/10/12 11:16:10;;;;;;;3.63;1.53;;;14.10;99.90;;;;;;5014370;28;20188;-49
2021/10/12 11:18:38;;;;;;;3.60;1.23;;;14.20;99.90;;;;;;5010060;28;20229;-49
2021/10/12 11:21:08;;;;;;;1.70;0.70;;;14.20;99.90;;;;;;5011403;28;20225;-49
2021/10/12 11:23:47;;;;;;;1.40;0.70;;;14.20;99.90;;;;;;5012377;28;20292;-49
2021/10/12 11:26:19;;;;;;;3.37;0.90;;;14.00;99.90;;;;;;5007498;28;20255;-49
2021/10/12 11:28:54;;;;;;;3.03;0.90;;;14.00;99.90;;;;;;5015626;28;20239;-50
2021/10/12 11:31:24;;;;;;;3.60;0.83;;;14.00;99.90;;;;;;5013866;28;20211;-50
2021/10/12 11:33:56;;;;;;;4.73;0.90;;;14.00;99.90;;;;;;5010600;28;20213;-49
2021/10/12 11:36:28;;;;;;;3.17;0.87;;;14.00;99.90;;;;;;5016601;28;20197;-49
2021/10/12 11:38:59;;;;;;;2.03;0.80;;;14.10;99.90;;;;;;5012961;28;20587;-50
2021/10/12 11:41:39;;;;;;;2.53;1.20;;;14.00;99.90;;;;;;5007127;28;20194;-50
2021/10/12 11:44:17;;;;;;;4.17;1.00;;;14.10;99.90;;;;;;5012584;28;20197;-50
2021/10/12 11:46:49;;;;;;;3.30;1.10;;;14.20;99.90;;;;;;5014045;28;20259;-50
2021/10/12 11:49:18;;;;;;;2.40;1.07;;;14.30;99.90;;;;;;5010174;28;20549;-50
2021/10/12 11:51:48;;;;;;;4.87;1.20;;;14.40;99.90;;;;;;5016336;28;20201;-50
2021/10/12 11:54:21;;;;;;;3.90;1.27;;;14.20;99.90;;;;;;5009313;28;20216;-49
2021/10/12 11:56:48;;;;;;;5.07;1.57;;;14.40;99.90;;;;;;5014375;28;20248;-50
2021/10/12 11:59:15;;;;;;;3.50;1.10;;;14.50;99.90;;;;;;5014439;28;20275;-50
2021/10/12 12:01:44;;;;;;;4.40;1.63;;;14.40;99.90;;;;;;5007925;28;20247;-50
2021/10/12 12:04:28;;;;;;;2.63;1.47;;;14.40;99.90;;;;;;5014416;28;20944;-49
2021/10/12 12:06:58;;;;;;;3.97;1.43;;;14.50;99.90;;;;;;5014223;28;20287;-50
2021/10/12 12:09:26;;;;;;;4.30;1.93;;;14.40;99.90;;;;;;5008417;28;20634;-50
2021/10/12 12:11:54;;;;;;;2.90;1.40;;;14.40;99.90;;;;;;5005209;28;20267;-50
2021/10/12 12:14:24;;;;;;;3.77;1.40;;;14.60;99.90;;;;;;5011059;28;20264;-50
2021/10/12 12:17:10;;;;;;;1.67;1.10;;;14.50;99.90;;;;;;5013435;28;20942;-50
2021/10/12 12:19:57;;;;;;;3.30;1.00;;;14.50;99.90;;;;;;5011348;28;20284;-50
2021/10/12 12:22:31;;;;;;;1.60;1.07;;;14.60;99.90;;;;;;5011645;28;20197;-50
2021/10/12 12:24:59;;;;;;;3.40;0.83;;;14.50;99.90;;;;;;5016036;28;20300;-50
2021/10/12 12:27:36;;;;;;;2.03;1.10;;;14.70;99.90;;;;;;5013424;28;20201;-51
2021/10/12 12:30:04;;;;;;;1.37;0.90;;;15.00;99.90;;;;;;5012588;28;20205;-50
2021/10/12 12:32:31;;;;;;;2.63;0.87;;;14.90;99.90;;;;;;5013688;28;20739;-49
2021/10/12 12:35:00;;;;;;;1.63;0.80;;;14.90;99.90;;;;;;5013776;28;20797;-50
2021/10/12 12:37:28;;;;;;;1.10;0.50;;;15.20;99.90;;;;;;5010447;28;20205;-50
2021/10/12 12:39:54;;;;;;;1.30;0.53;;;15.10;99.90;;;;;;5014694;28;20898;-50
2021/10/12 12:42:38;;;;;;;1.63;0.50;;;15.30;99.90;;;;;;5015456;28;20282;-50
2021/10/12 12:45:17;;;;;;;1.60;0.50;;;15.00;99.90;;;;;;5014331;28;20205;-50
2021/10/12 12:47:55;;;;;;;1.53;0.60;;;15.00;99.90;;;;;;5013301;28;20205;-50
2021/10/12 12:50:28;;;;;;;1.13;0.70;;;15.00;99.90;;;;;;5011158;28;20747;-49
2021/10/12 12:52:57;;;;;;;0.97;0.40;;;14.90;99.90;;;;;;5021601;28;20219;-49
2021/10/12 12:55:41;;;;;;;0.80;0.30;;;15.20;99.90;;;;;;5014109;28;20650;-50
2021/10/12 12:58:10;;;;;;;0.70;0.40;;;15.10;99.90;;;;;;5009628;28;20601;-49
2021/10/12 13:00:40;;;;;;;2.60;0.50;;;15.30;99.90;;;;;;5011182;28;20248;-49